Latest Weather Observations for Applethorpe

IDN60801

Issued at 12:32 pm EST Sunday 26 April 2015 (issued every 30 minutes, with the page automatically refreshed every 10 minutes)

About weather observations | Map of weather stations | Latest weather observations for NSW | Other Formats
Station Details ID: 041175 Name: APPLETHORPE Lat: -28.62 Lon: 151.95 Height: 871.6 m
Data from the previous 72 hours. | See also: Recent months at Applethorpe
Date/Time
EST
Temp
°C
App
Temp
°C
Dew
Point
Rel
Hum
%
Delta-T
°C
Wind Press
QNH
hPa
Press
MSL
hPa
Rain
since 9 am
mm
Dir
 
Spd
km/h
Gust
km/h
Spd
kts
Gust
kts
26/12:30pm 10.9 4.5 3.1 58 3.6 WSW 26 41 14 22 1013.9 1011.0 0.0
26/12:23pm 11.2 4.4 3.2 58 3.7 WSW 28 50 15 27 1014.0 1011.1 0.0
26/12:00pm 10.7 5.1 3.3 60 3.4 WSW 22 41 12 22 1013.9 1011.0 0.0
26/11:42am 9.4 2.6 3.0 64 2.9 WSW 28 50 15 27 1014.2 1011.4 0.0
26/11:30am 10.1 4.1 3.1 62 3.2 WSW 24 41 13 22 1014.2 1011.4 0.0
26/11:00am 9.4 3.4 3.2 65 2.8 WSW 24 39 13 21 1014.5 1011.7 0.0
26/10:30am 9.5 3.4 2.9 63 3.0 WSW 24 39 13 21 1014.8 1011.9 0.0
26/10:00am 9.8 4.2 3.5 65 2.9 WSW 22 37 12 20 1014.6 1011.8 0.0
26/09:30am 9.3 3.1 2.3 61 3.1 WSW 24 37 13 20 1014.6 1011.8 0.0
26/09:00am 8.8 3.7 3.3 68 2.5 WSW 19 30 10 16 1014.5 1011.7 0.0
26/08:30am 8.9 4.2 3.2 67 2.6 SW 17 24 9 13 1014.3 1011.5 0.0
26/08:00am 8.2 3.9 3.1 70 2.3 WSW 15 32 8 17 1014.0 1011.1 0.0
26/07:30am 7.8 3.4 2.6 69 2.3 WSW 15 30 8 16 1013.8 1010.9 0.0
26/07:00am 7.3 3.2 2.3 70 2.2 WSW 13 20 7 11 1013.7 1010.8 0.0
26/06:30am 6.7 3.0 2.3 73 1.9 W 11 20 6 11 1013.3 1010.5 0.0
26/06:00am 7.0 3.3 2.2 71 2.1 W 11 19 6 10 1013.0 1010.1 0.0
26/05:30am 7.5 3.4 2.0 68 2.4 WSW 13 20 7 11 1012.8 1009.9 0.0
26/05:00am 8.1 3.9 1.6 63 2.8 WSW 13 19 7 10 1012.5 1009.6 0.0
26/04:30am 8.5 4.3 1.6 62 3.0 WSW 13 19 7 10 1012.0 1009.1 0.0
26/04:00am 9.0 4.8 1.4 59 3.3 WSW 13 26 7 14 1011.9 1009.0 0.0
26/03:30am 9.5 5.2 1.2 56 3.6 WSW 13 24 7 13 1011.7 1008.8 0.0
26/03:00am 10.0 5.3 1.1 54 3.9 WSW 15 30 8 16 1011.7 1008.8 0.0
26/02:30am 10.5 5.9 1.4 53 4.0 WSW 15 22 8 12 1011.6 1008.7 0.0
26/02:00am 11.0 6.4 1.8 53 4.1 WSW 15 26 8 14 1011.8 1008.9 0.0
26/01:30am 11.6 7.1 2.1 52 4.3 WSW 15 26 8 14 1011.9 1009.0 0.0
26/01:00am 11.5 7.8 2.5 54 4.1 WSW 11 20 6 11 1011.9 1009.0 0.0
26/12:30am 11.2 8.4 2.9 56 3.8 W 7 13 4 7 1012.0 1009.1 0.0
26/12:00am 10.3 7.8 3.9 64 3.0 W 6 9 3 5 1012.5 1009.6 0.0
 
Date/Time
EST
Temp
°C
App
Temp
°C
Dew
Point
Rel
Hum
%
Delta-T
°C
Wind Press
QNH
hPa
Press
MSL
hPa
Rain
since 9 am
mm
Dir
 
Spd
km/h
Gust
km/h
Spd
kts
Gust
kts
25/11:30pm 11.2 8.7 3.7 60 3.5 WSW 6 9 3 5 1012.7 1009.8 0.0
25/11:00pm 12.7 9.9 3.0 51 4.5 WSW 7 13 4 7 1012.9 1010.0 0.0
25/10:30pm 13.5 10.3 2.8 48 5.0 W 9 17 5 9 1013.3 1010.5 0.0
25/10:00pm 13.5 10.7 3.1 49 4.9 WNW 7 13 4 7 1013.5 1010.6 0.0
25/09:30pm 13.7 10.5 3.1 48 5.0 W 9 17 5 9 1013.5 1010.6 0.0
25/09:00pm 13.5 10.7 3.3 50 4.8 W 7 13 4 7 1013.5 1010.6 0.0
25/08:30pm 12.6 9.9 3.7 54 4.2 WNW 7 13 4 7 1013.3 1010.5 0.0
25/08:00pm 11.4 9.1 4.7 63 3.2 WNW 6 9 3 5 1013.1 1010.3 0.0
25/07:30pm 10.7 8.6 5.8 72 2.4 WNW 6 7 3 4 1012.8 1009.9 0.0
25/07:00pm 10.7 9.6 6.7 76 2.0 WNW 2 4 1 2 1012.5 1009.6 0.0
25/06:00pm 12.4 11.9 7.7 73 2.4 CALM 0 0 0 0 1011.9 1009.0 0.0
25/05:30pm 15.8 14.3 6.7 54 4.7 WNW 4 11 2 6 1011.8 1008.9 0.0
25/05:00pm 19.1 17.2 4.9 39 7.2 WNW 4 7 2 4 1011.7 1008.8 0.0
25/04:30pm 19.9 16.3 2.7 32 8.4 W 11 19 6 10 1011.5 1008.6 0.0
25/04:00pm 19.7 16.2 3.3 33 8.1 W 11 24 6 13 1011.4 1008.5 0.0
25/03:30pm 20.5 16.2 3.1 31 8.6 WSW 15 24 8 13 1011.4 1008.5 0.0
25/03:00pm 21.4 18.4 4.3 32 8.7 WNW 9 15 5 8 1011.3 1008.4 0.0
25/02:30pm 20.2 16.8 3.8 34 8.2 WNW 11 17 6 9 1011.4 1008.5 0.0
25/02:00pm 21.0 17.2 3.7 32 8.7 WSW 13 24 7 13 1011.5 1008.6 0.0
25/01:30pm 20.8 16.4 2.7 30 8.9 W 15 24 8 13 1011.5 1008.6 0.0
25/01:00pm 20.7 17.1 2.9 31 8.8 WNW 11 26 6 14 1011.8 1008.9 0.0
25/12:30pm 20.6 16.9 4.2 34 8.3 W 13 24 7 13 1012.1 1009.3 0.0
25/12:00pm 20.4 17.2 3.0 31 8.6 WNW 9 24 5 13 1012.5 1009.6 0.0
25/11:30am 20.1 15.9 3.6 33 8.2 W 15 22 8 12 1012.9 1010.0 0.0
25/11:00am 20.3 16.8 3.7 33 8.3 W 11 19 6 10 1013.3 1010.5 0.0
25/10:30am 19.6 16.1 3.4 34 8.0 WNW 11 19 6 10 1013.5 1010.6 0.0
25/10:00am 19.1 16.2 4.6 38 7.3 WSW 9 17 5 9 1013.6 1010.7 0.0
25/09:30am 18.4 15.7 5.7 43 6.5 WSW 9 15 5 8 1013.8 1010.9 0.0
25/09:00am 17.2 14.4 5.0 44 6.1 W 9 15 5 8 1014.0 1011.1 0.0
25/08:30am 15.2 13.2 6.3 55 4.5 W 6 9 3 5 1014.0 1011.1 0.0
25/08:00am 10.4 10.2 8.9 90 0.8 CALM 0 0 0 0 1013.8 1010.9 0.0
25/07:30am 8.3 7.7 7.5 95 0.4 CALM 0 0 0 0 1013.7 1010.8 0.0
25/07:00am 6.4 5.5 6.0 97 0.2 CALM 0 0 0 0 1013.3 1010.5 0.0
25/06:30am 5.5 4.4 5.1 97 0.2 CALM 0 0 0 0 1013.0 1010.1 0.0
25/06:00am 5.4 4.3 5.2 99 0.1 CALM 0 0 0 0 1012.6 1009.7 0.0
25/05:30am 5.5 4.4 5.3 99 0.1 CALM 0 0 0 0 1012.5 1009.6 0.0
25/05:00am 5.7 4.6 5.3 97 0.2 CALM 0 0 0 0 1012.4 1009.5 0.0
25/04:30am 6.2 5.2 5.8 97 0.2 CALM 0 0 0 0 1012.3 1009.4 0.0
25/04:00am 6.3 5.4 5.9 97 0.2 CALM 0 0 0 0 1012.3 1009.4 0.0
25/03:30am 6.6 5.7 6.2 97 0.2 CALM 0 0 0 0 1012.3 1009.4 0.0
25/03:00am 7.3 6.6 6.9 97 0.2 CALM 0 0 0 0 1012.4 1009.5 0.0
25/02:30am 7.8 7.2 7.2 96 0.3 CALM 0 0 0 0 1012.4 1009.5 0.0
25/02:00am 8.6 8.1 8.0 96 0.3 CALM 0 0 0 0 1012.6 1009.7 0.0
25/01:30am 8.9 8.5 8.3 96 0.3 CALM 0 0 0 0 1012.9 1010.0 0.0
25/01:00am 8.9 8.5 8.1 95 0.4 CALM 0 0 0 0 1013.0 1010.1 0.0
25/12:30am 8.6 8.1 8.0 96 0.3 CALM 0 0 0 0 1013.2 1010.4 0.0
25/12:00am 8.7 8.3 8.1 96 0.3 CALM 0 2 0 1 1013.1 1010.3 0.0
 
Date/Time
EST
Temp
°C
App
Temp
°C
Dew
Point
Rel
Hum
%
Delta-T
°C
Wind Press
QNH
hPa
Press
MSL
hPa
Rain
since 9 am
mm
Dir
 
Spd
km/h
Gust
km/h
Spd
kts
Gust
kts
24/11:30pm 8.8 8.4 8.2 96 0.3 CALM 0 0 0 0 1013.2 1010.4 0.0
24/11:00pm 8.4 7.9 8.0 97 0.2 CALM 0 2 0 1 1013.5 1010.6 0.0
24/10:30pm 8.6 8.1 8.0 96 0.3 CALM 0 0 0 0 1013.3 1010.5 0.0
24/10:00pm 8.9 8.2 8.5 97 0.2 NNW 2 4 1 2 1013.5 1010.6 0.0
24/09:30pm 9.1 8.8 8.5 96 0.3 CALM 0 0 0 0 1013.5 1010.6 0.0
24/09:00pm 9.5 9.3 8.9 96 0.3 CALM 0 0 0 0 1013.3 1010.5 0.0
24/08:30pm 9.7 9.5 8.9 95 0.4 CALM 0 0 0 0 1013.2 1010.4 0.0
24/08:00pm 10.2 10.0 9.2 93 0.5 CALM 0 0 0 0 1013.0 1010.1 0.0
24/07:30pm 11.3 11.2 9.6 89 0.9 CALM 0 0 0 0 1012.9 1010.0 0.0
24/07:00pm 12.9 12.1 9.7 81 1.7 W 4 6 2 3 1012.7 1009.8 0.0
24/06:30pm 14.5 13.3 9.7 73 2.6 W 6 7 3 4 1012.4 1009.5 0.0
24/06:00pm 15.0 13.8 9.7 70 2.9 W 6 7 3 4 1012.1 1009.3 0.0
24/05:30pm 15.9 14.8 9.9 67 3.3 W 6 7 3 4 1011.9 1009.0 0.0
24/05:00pm 17.8 15.8 8.8 55 4.9 WSW 9 15 5 8 1011.7 1008.8 0.0
24/04:30pm 18.0 16.0 8.8 55 5.0 WSW 9 17 5 9 1011.4 1008.5 0.0
24/04:00pm 19.7 17.7 8.7 49 6.0 WSW 9 19 5 10 1011.2 1008.3 0.0
24/03:30pm 19.6 16.9 8.8 49 5.9 W 13 20 7 11 1011.3 1008.4 0.0
24/03:00pm 18.9 16.6 9.1 53 5.4 WSW 11 20 6 11 1011.4 1008.5 0.0
24/02:30pm 20.2 18.1 9.6 50 5.9 W 11 19 6 10 1011.5 1008.6 0.0
24/02:00pm 19.2 16.8 10.1 55 5.1 SW 13 22 7 12 1011.5 1008.6 0.0
24/01:30pm 19.6 17.7 10.4 55 5.2 WSW 11 22 6 12 1011.6 1008.7 0.0
24/01:00pm 20.1 17.9 9.3 49 6.0 W 11 22 6 12 1011.8 1008.9 0.0
24/12:30pm 19.9 18.5 11.0 56 5.1 WSW 9 17 5 9 1012.1 1009.3 0.0
24/12:00pm 18.9 16.6 10.3 57 4.8 SW 13 26 7 14 1012.7 1009.8 0.0
24/11:30am 18.4 16.0 9.9 57 4.7 SW 13 22 7 12 1013.1 1010.3 0.0
24/11:00am 19.1 17.1 10.2 56 5.0 WSW 11 19 6 10 1013.5 1010.6 0.0
24/10:30am 18.0 15.9 9.9 59 4.5 SW 11 19 6 10 1013.6 1010.7 0.0
24/10:00am 17.8 16.3 10.5 62 4.1 WSW 9 13 5 7 1013.7 1010.8 0.0
24/09:30am 16.4 15.6 11.1 71 3.0 WSW 6 9 3 5 1013.7 1010.8 0.0
24/09:00am 15.4 14.8 11.7 78 2.1 SSW 6 7 3 4 1013.7 1010.8 0.0
24/08:30am 14.3 15.1 12.4 88 1.1 CALM 0 0 0 0 1014.0 1011.1 0.0
24/08:00am 12.3 12.7 11.4 94 0.5 CALM 0 0 0 0 1013.8 1010.9 0.0
24/07:30am 11.3 11.5 10.6 95 0.4 CALM 0 0 0 0 1013.5 1010.6 0.0
24/07:00am 10.8 10.5 10.2 96 0.3 W 2 4 1 2 1013.7 1010.8 0.0
24/06:30am 10.0 9.9 9.6 97 0.2 CALM 0 0 0 0 1013.1 1010.3 0.0
24/06:00am 9.7 9.6 9.3 97 0.2 CALM 0 0 0 0 1012.7 1009.8 0.0
24/05:30am 9.7 9.6 9.3 97 0.2 CALM 0 0 0 0 1012.6 1009.7 0.0
24/05:00am 9.6 9.4 9.0 96 0.3 CALM 0 0 0 0 1012.4 1009.5 0.0
24/04:30am 9.5 9.3 9.1 97 0.2 CALM 0 2 0 1 1012.1 1009.3 0.0
24/04:00am 9.4 9.2 9.0 97 0.2 CALM 0 0 0 0 1012.3 1009.4 0.0
24/03:30am 9.0 8.7 8.6 97 0.2 CALM 0 0 0 0 1012.3 1009.4 0.0
24/03:00am 9.2 8.9 8.8 97 0.2 CALM 0 0 0 0 1012.7 1009.8 0.0
24/02:30am 9.0 8.7 8.6 97 0.2 CALM 0 0 0 0 1012.9 1010.0 0.0
24/02:00am 8.8 8.5 8.6 99 0.1 CALM 0 0 0 0 1012.9 1010.0 0.0
24/01:30am 8.8 8.5 8.6 99 0.1 CALM 0 0 0 0 1013.1 1010.3 0.0
24/01:00am 8.5 8.1 8.1 97 0.2 CALM 0 0 0 0 1013.5 1010.6 0.0
24/12:30am 8.9 8.6 8.5 97 0.2 CALM 0 0 0 0 1013.2 1010.4 0.0
24/12:00am 9.5 9.3 9.1 97 0.2 CALM 0 0 0 0 1013.6 1010.7 0.0
 
Date/Time
EST
Temp
°C
App
Temp
°C
Dew
Point
Rel
Hum
%
Delta-T
°C
Wind Press
QNH
hPa
Press
MSL
hPa
Rain
since 9 am
mm
Dir
 
Spd
km/h
Gust
km/h
Spd
kts
Gust
kts
23/11:30pm 9.2 8.9 8.6 96 0.3 CALM 0 0 0 0 1014.0 1011.1 0.0
23/11:00pm 9.5 9.4 9.3 99 0.1 CALM 0 0 0 0 1014.1 1011.3 0.0
23/10:30pm 9.4 9.2 9.2 99 0.1 CALM 0 0 0 0 1014.3 1011.5 0.0
23/10:00pm 9.5 9.3 8.9 96 0.3 CALM 0 0 0 0 1014.2 1011.4 0.0
23/09:30pm 8.8 8.4 8.2 96 0.3 CALM 0 0 0 0 1014.3 1011.5 0.0
23/09:00pm 9.1 8.8 8.5 96 0.3 CALM 0 0 0 0 1014.4 1011.6 0.0
23/08:30pm 9.8 9.5 8.8 93 0.5 CALM 0 0 0 0 1014.1 1011.3 0.0
23/08:00pm 10.2 10.1 9.6 96 0.3 CALM 0 0 0 0 1014.1 1011.3 0.0
23/07:30pm 11.4 10.3 10.1 92 0.7 WSW 6 6 3 3 1014.0 1011.1 0.0
23/07:00pm 11.9 11.6 10.0 88 1.0 SW 2 4 1 2 1013.9 1011.0 0.0
23/06:30pm 12.6 11.9 10.2 85 1.3 WSW 4 6 2 3 1013.6 1010.7 0.0
23/06:00pm 14.1 13.0 10.1 77 2.2 WSW 6 6 3 3 1013.3 1010.5 0.0
23/05:30pm 15.6 14.5 9.9 69 3.1 WSW 6 13 3 7 1013.0 1010.1 0.0
23/05:00pm 17.1 15.7 9.6 61 4.1 WSW 7 13 4 7 1012.7 1009.8 0.0
23/04:30pm 17.6 16.2 9.6 59 4.4 WSW 7 13 4 7 1012.3 1009.4 0.0
23/04:00pm 18.5 16.6 9.0 54 5.2 SW 9 15 5 8 1012.0 1009.1 0.0
23/03:30pm 19.2 17.3 9.2 52 5.5 W 9 17 5 9 1012.1 1009.3 0.0
23/03:00pm 19.3 17.4 9.1 51 5.6 WSW 9 15 5 8 1012.3 1009.4 0.0
23/02:30pm 19.3 17.5 9.3 52 5.5 WSW 9 13 5 7 1012.4 1009.5 0.0
23/02:00pm 19.0 17.5 9.0 52 5.5 WSW 7 13 4 7 1012.4 1009.5 0.0
23/01:30pm 17.8 16.3 9.2 57 4.7 SW 7 13 4 7 1012.7 1009.8 0.0
23/01:00pm 17.5 15.9 8.8 56 4.7 SW 7 13 4 7 1013.1 1010.3 0.0

Other Formats:

Comma delimited format used in spreadsheet applications
http://www.bom.gov.au/fwo/IDN60801/IDN60801.94553.axf

JavaScript Object Notation format (JSON) in row-major order
http://www.bom.gov.au/fwo/IDN60801/IDN60801.94553.json